Time;durP1;ratioP1;P1;durP2;ratioP2;P2;SDS_P1;SDS_P2;PMS_P1;PMS_P2;Temp;Humidity;BMP_temperature;BMP_pressure;BME280_temperature;BME280_humidity;BME280_pressure;Samples;Min_cycle;Max_cycle;Signal;HPM_P1;HPM_P2
2022/11/11 00:00:50;;;;;;;264.73;32.33;;;5.30;99.90;;;;;;5017672;28;20190;-89
2022/11/11 00:03:16;;;;;;;21.52;13.02;;;5.30;99.90;;;;;;5019203;28;20496;-89
2022/11/11 00:05:42;;;;;;;55.30;15.50;;;;;;;;;;5032874;28;20801;-90
2022/11/11 00:08:08;;;;;;;23.23;11.77;;;;;;;;;;5038551;28;20320;-89
2022/11/11 00:10:33;;;;;;;227.82;25.00;;;5.20;99.90;;;;;;5038394;28;21735;-90
2022/11/11 00:13:00;;;;;;;227.40;26.57;;;5.10;99.90;;;;;;5022656;28;20200;-88
2022/11/11 00:15:29;;;;;;;116.72;19.92;;;5.10;99.90;;;;;;5044711;28;20258;-90
2022/11/11 00:26:13;;;;;;;115.28;20.58;;;5.40;99.90;;;;;;5042042;28;20208;-88
2022/11/11 00:28:39;;;;;;;119.53;18.38;;;8.00;99.90;;;;;;5031656;28;20310;-87
2022/11/11 00:31:10;;;;;;;44.50;14.70;;;5.10;99.90;;;;;;5031695;28;20181;-88
2022/11/11 00:33:37;;;;;;;92.88;18.92;;;5.00;99.90;;;;;;5044104;28;20192;-88
2022/11/11 00:36:03;;;;;;;83.75;17.52;;;5.00;99.90;;;;;;5029433;28;20181;-87
2022/11/11 00:38:44;;;;;;;88.22;18.23;;;4.90;99.90;;;;;;5029989;28;20212;-88
2022/11/11 00:41:10;;;;;;;110.88;19.60;;;4.90;99.90;;;;;;5037015;28;20681;-88
2022/11/11 00:43:36;;;;;;;168.10;22.35;;;4.80;99.90;;;;;;5053208;28;20178;-88
2022/11/11 00:51:30;;;;;;;114.38;20.40;;;4.80;99.90;;;;;;5031085;28;20307;-88
2022/11/11 00:53:56;;;;;;;38.03;13.30;;;4.70;99.90;;;;;;5039267;28;20406;-88
2022/11/11 00:56:23;;;;;;;39.00;11.93;;;4.90;99.90;;;;;;5041849;28;20204;-89
2022/11/11 00:58:49;;;;;;;20.50;10.45;;;4.80;99.90;;;;;;5035193;28;20233;-88
2022/11/11 01:01:15;;;;;;;28.30;12.17;;;;;;;;;;5031843;28;20185;-88
2022/11/11 01:03:40;;;;;;;18.30;10.85;;;4.40;99.90;;;;;;5055014;28;20826;-87
2022/11/11 01:06:06;;;;;;;16.80;10.97;;;;;;;;;;5047656;28;20181;-88
2022/11/11 01:08:33;;;;;;;21.13;10.83;;;;;;;;;;5052383;28;21234;-88
2022/11/11 01:10:58;;;;;;;16.13;9.60;;;4.20;99.90;;;;;;5051401;28;20547;-88
2022/11/11 01:13:29;;;;;;;21.27;9.17;;;4.30;99.90;;;;;;5044337;28;20245;-89
2022/11/11 01:16:06;;;;;;;17.98;10.88;;;4.40;99.90;;;;;;5030378;28;20197;-88
2022/11/11 01:18:32;;;;;;;122.15;19.25;;;4.50;99.90;;;;;;5030021;28;20348;-89
2022/11/11 01:21:06;;;;;;;380.23;37.43;;;4.40;99.90;;;;;;5037915;28;20268;-87
2022/11/11 01:23:35;;;;;;;363.17;33.65;;;4.40;99.90;;;;;;5028031;28;20521;-87
2022/11/11 01:26:06;;;;;;;293.77;32.70;;;4.20;99.90;;;;;;5033113;28;20193;-88
2022/11/11 01:28:32;;;;;;;313.95;30.08;;;4.30;99.90;;;;;;5036197;28;20232;-88
2022/11/11 01:31:09;;;;;;;176.80;24.77;;;4.30;99.90;;;;;;5025863;28;20192;-87
2022/11/11 01:33:35;;;;;;;31.90;11.98;;;4.30;99.90;;;;;;5045508;28;20203;-88
2022/11/11 01:36:13;;;;;;;36.78;12.68;;;4.20;99.90;;;;;;5053449;28;20302;-87
2022/11/11 01:38:41;;;;;;;37.92;14.73;;;4.10;99.90;;;;;;5043116;28;20203;-87
2022/11/11 01:44:10;;;;;;;22.05;11.90;;;3.70;99.90;;;;;;5023399;28;20180;-87
2022/11/11 01:46:46;;;;;;;20.13;12.68;;;3.90;99.90;;;;;;5046300;28;20816;-88
2022/11/11 01:49:49;;;;;;;53.28;17.33;;;3.90;99.90;;;;;;5033289;28;20200;-88
2022/11/11 01:52:33;;;;;;;555.35;56.75;;;4.00;99.90;;;;;;5024150;28;20188;-88
2022/11/11 01:55:28;;;;;;;335.77;38.92;;;4.20;99.90;;;;;;5029367;28;20191;-88
2022/11/11 01:58:03;;;;;;;156.90;23.35;;;4.00;99.90;;;;;;5030962;28;20224;-89
2022/11/11 02:00:29;;;;;;;246.60;26.95;;;4.00;99.90;;;;;;5027980;28;20180;-89
2022/11/11 02:03:03;;;;;;;38.00;14.30;;;3.90;99.90;;;;;;5036154;28;20181;-88
2022/11/11 02:05:46;;;;;;;46.25;14.93;;;3.90;99.90;;;;;;5041873;28;20788;-87
2022/11/11 02:08:40;;;;;;;31.33;13.75;;;3.90;99.90;;;;;;5029691;28;20201;-87
2022/11/11 02:14:34;;;;;;;30.15;13.27;;;3.90;99.90;;;;;;5055776;22;20247;-84
2022/11/11 02:16:46;;;;;;;57.33;14.65;;;4.00;99.90;;;;;;5076414;28;20241;-84
2022/11/11 02:19:12;;;;;;;45.83;15.40;;;4.10;99.90;;;;;;5076217;28;20203;-85
2022/11/11 02:21:48;;;;;;;19.58;11.68;;;4.00;99.90;;;;;;5057270;28;20227;-87
2022/11/11 02:24:20;;;;;;;28.83;11.07;;;3.90;99.90;;;;;;5056773;28;20168;-84
2022/11/11 02:26:47;;;;;;;18.23;9.52;;;3.70;99.90;;;;;;5055158;28;20176;-85
2022/11/11 02:29:15;;;;;;;18.83;10.63;;;3.60;99.90;;;;;;5047752;28;20186;-84
2022/11/11 02:31:41;;;;;;;16.58;10.57;;;3.60;99.90;;;;;;5035493;28;20232;-84
2022/11/11 02:34:07;;;;;;;22.10;13.30;;;3.60;99.90;;;;;;5037780;28;20192;-85
2022/11/11 02:36:33;;;;;;;18.00;12.00;;;3.90;99.90;;;;;;5036482;28;20335;-85
2022/11/11 02:38:59;;;;;;;17.08;10.57;;;3.80;99.90;;;;;;5038280;28;20252;-85
2022/11/11 02:44:08;;;;;;;14.80;7.85;;;4.20;99.90;;;;;;5037654;28;20164;-86
2022/11/11 02:46:34;;;;;;;22.53;11.30;;;4.40;99.90;;;;;;5038916;28;20264;-86
2022/11/11 02:48:59;;;;;;;22.27;13.63;;;4.50;99.90;;;;;;5039661;28;20213;-85
2022/11/11 02:51:25;;;;;;;275.00;36.47;;;4.50;99.90;;;;;;5039552;28;20220;-85
2022/11/11 02:53:51;;;;;;;189.23;24.03;;;;;;;;;;5044404;28;20198;-84
2022/11/11 02:57:05;;;;;;;304.63;32.17;;;3.90;99.90;;;;;;5050802;28;20438;-85
2022/11/11 02:59:02;;;;;;;275.60;27.70;;;3.80;99.90;;;;;;5039886;28;20834;-85
2022/11/11 03:01:27;;;;;;;418.47;40.30;;;3.80;99.90;;;;;;5039530;28;20196;-85
2022/11/11 03:03:53;;;;;;;331.97;32.53;;;3.80;99.90;;;;;;5053460;28;20169;-85
2022/11/11 03:06:19;;;;;;;360.40;32.03;;;;;;;;;;5058944;28;20223;-86
2022/11/11 03:08:44;;;;;;;332.93;29.80;;;3.70;99.90;;;;;;5058346;28;20179;-86
2022/11/11 03:11:10;;;;;;;243.77;22.83;;;3.60;99.90;;;;;;5043274;28;20475;-85
2022/11/11 03:13:36;;;;;;;355.27;28.67;;;;;;;;;;5038651;28;20245;-86
2022/11/11 03:16:01;;;;;;;233.53;19.13;;;3.60;99.90;;;;;;5038555;28;20176;-84
2022/11/11 03:18:27;;;;;;;192.20;18.97;;;3.70;99.90;;;;;;5038108;28;20462;-86
2022/11/11 03:21:04;;;;;;;159.57;19.27;;;3.70;99.90;;;;;;5038558;28;20200;-85
2022/11/11 03:23:30;;;;;;;170.52;18.55;;;4.40;99.90;;;;;;5038865;28;20200;-86
2022/11/11 03:25:56;;;;;;;32.53;11.30;;;;;;;;;;5038801;28;20170;-85
2022/11/11 03:28:23;;;;;;;149.20;18.17;;;3.70;99.90;;;;;;5042799;28;20192;-84
2022/11/11 03:30:50;;;;;;;169.75;25.45;;;3.60;99.90;;;;;;5055789;28;20459;-84
2022/11/11 03:33:16;;;;;;;61.15;12.40;;;3.50;99.90;;;;;;5052659;28;20657;-85
2022/11/11 03:35:42;;;;;;;20.88;11.20;;;3.50;99.90;;;;;;5052987;28;20403;-85
2022/11/11 03:38:22;;;;;;;112.17;16.13;;;3.50;99.90;;;;;;5051928;28;20230;-85
2022/11/11 03:40:50;;;;;;;47.63;12.80;;;3.50;99.90;;;;;;5062987;28;20535;-84
2022/11/11 03:43:18;;;;;;;60.45;13.60;;;3.40;99.90;;;;;;5061043;28;20248;-85
2022/11/11 03:45:45;;;;;;;34.33;12.50;;;3.40;99.90;;;;;;5059425;28;20183;-84
2022/11/11 03:48:11;;;;;;;40.90;15.85;;;3.40;99.90;;;;;;5059771;28;20249;-85
2022/11/11 03:50:37;;;;;;;22.40;10.98;;;3.40;99.90;;;;;;5073592;28;20196;-85
2022/11/11 03:53:03;;;;;;;40.92;12.00;;;3.50;99.90;;;;;;5053857;28;20168;-84
2022/11/11 03:55:28;;;;;;;18.43;11.03;;;3.40;99.90;;;;;;5056219;28;20177;-85
2022/11/11 03:57:54;;;;;;;52.83;15.47;;;3.40;99.90;;;;;;5057297;28;20424;-85
2022/11/11 04:00:22;;;;;;;65.70;16.00;;;3.50;99.90;;;;;;5056025;28;20467;-85
2022/11/11 04:11:13;;;;;;;35.83;14.05;;;3.20;99.90;;;;;;5048627;28;20211;-85
2022/11/11 04:16:26;;;;;;;28.65;14.48;;;3.20;99.90;;;;;;5052463;28;20208;-85
2022/11/11 04:21:44;;;;;;;294.02;30.17;;;3.30;99.90;;;;;;5054324;28;20462;-85
2022/11/11 04:27:18;;;;;;;23.90;10.95;;;3.40;99.90;;;;;;5037513;28;20544;-86
2022/11/11 04:29:46;;;;;;;38.85;14.80;;;3.50;99.90;;;;;;5051493;28;20221;-85
2022/11/11 04:35:01;;;;;;;163.32;18.35;;;3.70;99.90;;;;;;5044391;28;20192;-87
2022/11/11 04:37:29;;;;;;;85.15;16.00;;;3.60;99.90;;;;;;5044180;28;20194;-84
2022/11/11 04:42:39;;;;;;;55.65;13.73;;;3.50;99.90;;;;;;5046544;28;20176;-84
2022/11/11 04:48:06;;;;;;;53.72;14.82;;;3.30;99.90;;;;;;5045207;28;20243;-84
2022/11/11 04:50:41;;;;;;;51.97;14.55;;;3.40;99.90;;;;;;5044754;28;20194;-84
2022/11/11 04:53:12;;;;;;;32.78;14.15;;;3.40;99.90;;;;;;5044284;28;20172;-85
2022/11/11 04:58:25;;;;;;;21.55;13.55;;;3.20;99.90;;;;;;5046508;28;20234;-84
2022/11/11 05:00:51;;;;;;;25.98;12.50;;;3.10;99.90;;;;;;5048334;28;20205;-86
2022/11/11 05:03:20;;;;;;;22.80;12.23;;;3.20;99.90;;;;;;5042883;28;20192;-84
2022/11/11 05:11:19;;;;;;;20.35;11.05;;;3.20;99.90;;;;;;5047440;28;20215;-85
2022/11/11 05:21:52;;;;;;;234.07;29.17;;;3.30;99.90;;;;;;5037354;28;20207;-86
2022/11/11 05:27:01;;;;;;;222.73;28.35;;;3.30;99.90;;;;;;5042415;28;20184;-86
2022/11/11 05:29:26;;;;;;;194.37;28.90;;;3.30;99.90;;;;;;5046079;28;20185;-88
2022/11/11 05:31:52;;;;;;;215.30;25.63;;;3.30;99.90;;;;;;5042143;28;20339;-89
2022/11/11 05:34:18;;;;;;;128.30;23.70;;;3.40;99.90;;;;;;5042347;28;20173;-87
2022/11/11 05:36:45;;;;;;;66.97;20.10;;;3.50;99.90;;;;;;5039754;28;20340;-87
2022/11/11 05:39:11;;;;;;;88.68;24.77;;;3.40;99.90;;;;;;5044578;28;20193;-85
2022/11/11 05:41:36;;;;;;;122.70;29.10;;;3.50;99.90;;;;;;5046574;28;20212;-85
2022/11/11 05:44:02;;;;;;;98.20;26.40;;;3.50;99.90;;;;;;5038941;28;20718;-87
2022/11/11 05:46:27;;;;;;;62.97;20.57;;;3.70;99.90;;;;;;5044233;28;20185;-88
2022/11/11 05:51:37;;;;;;;47.30;17.40;;;3.60;99.90;;;;;;5040321;28;20216;-89
2022/11/11 05:54:02;;;;;;;120.53;19.03;;;3.70;99.90;;;;;;5047696;28;20181;-88
2022/11/11 05:56:28;;;;;;;61.47;15.90;;;;;;;;;;5047366;28;20292;-88
2022/11/11 05:58:54;;;;;;;81.90;19.80;;;;;;;;;;5043085;28;20440;-88
2022/11/11 06:01:23;;;;;;;100.00;19.37;;;3.90;99.90;;;;;;5048242;28;20235;-89
2022/11/11 06:03:49;;;;;;;100.38;19.90;;;4.10;99.90;;;;;;5049219;28;20504;-87
2022/11/11 06:06:14;;;;;;;69.50;18.23;;;4.20;99.90;;;;;;5047568;28;20176;-87
2022/11/11 06:08:44;;;;;;;127.53;23.50;;;4.20;99.90;;;;;;5036901;28;20186;-87
2022/11/11 06:11:09;;;;;;;82.38;20.08;;;3.90;99.90;;;;;;5044456;28;20282;-86
2022/11/11 06:13:36;;;;;;;52.30;16.17;;;3.70;99.90;;;;;;5052588;28;20562;-90
2022/11/11 06:16:05;;;;;;;43.70;18.70;;;3.50;99.90;;;;;;5040800;28;20197;-90
2022/11/11 06:18:36;;;;;;;35.28;17.90;;;3.40;99.90;;;;;;5042546;28;20217;-88
2022/11/11 06:21:14;;;;;;;37.83;16.08;;;3.40;99.90;;;;;;5039956;28;20208;-88
2022/11/11 06:23:42;;;;;;;39.10;17.75;;;3.30;99.90;;;;;;5052947;28;20169;-89
2022/11/11 06:26:12;;;;;;;35.50;16.33;;;3.20;99.90;;;;;;5039281;28;20188;-88
2022/11/11 06:28:43;;;;;;;34.28;18.38;;;3.10;99.90;;;;;;5036652;28;20178;-87
2022/11/11 06:31:12;;;;;;;32.90;17.85;;;3.00;99.90;;;;;;5032314;28;20211;-87
2022/11/11 06:33:38;;;;;;;34.35;17.35;;;3.00;99.90;;;;;;5038962;28;20273;-86
2022/11/11 06:36:05;;;;;;;201.05;29.30;;;3.00;99.90;;;;;;5039065;28;20181;-87
2022/11/11 06:38:31;;;;;;;299.85;34.40;;;3.00;99.90;;;;;;5046279;28;20205;-88
2022/11/11 06:40:57;;;;;;;245.63;28.63;;;3.00;99.90;;;;;;5037947;28;20268;-89
2022/11/11 06:43:23;;;;;;;153.40;25.83;;;2.90;99.90;;;;;;5039830;28;20204;-88
2022/11/11 06:45:53;;;;;;;124.17;20.10;;;2.90;99.90;;;;;;5038734;28;20223;-88
2022/11/11 06:48:20;;;;;;;171.10;24.50;;;2.90;99.90;;;;;;5043929;28;20440;-87
2022/11/11 06:50:45;;;;;;;184.68;24.75;;;3.60;99.90;;;;;;5049197;28;20745;-87
2022/11/11 06:53:13;;;;;;;130.43;20.73;;;3.00;99.90;;;;;;5044628;28;20173;-89
2022/11/11 06:55:41;;;;;;;79.53;21.02;;;3.00;99.90;;;;;;5042641;28;20241;-88
2022/11/11 06:58:12;;;;;;;152.85;27.38;;;3.10;99.90;;;;;;5049732;28;20185;-88
2022/11/11 07:00:48;;;;;;;132.73;24.33;;;3.30;99.90;;;;;;5057845;28;20604;-89
2022/11/11 07:03:16;;;;;;;155.88;25.73;;;3.40;99.90;;;;;;5044617;28;20173;-88
2022/11/11 07:05:47;;;;;;;380.38;41.08;;;3.50;99.90;;;;;;5038954;28;20166;-87
2022/11/11 07:08:17;;;;;;;409.20;39.90;;;3.60;99.90;;;;;;5035972;28;20179;-86
2022/11/11 07:10:45;;;;;;;101.47;17.45;;;3.80;99.90;;;;;;5034414;28;20700;-88
2022/11/11 07:13:11;;;;;;;552.17;48.83;;;3.80;99.90;;;;;;5037675;28;20252;-88
2022/11/11 07:15:36;;;;;;;381.23;32.03;;;3.90;99.90;;;;;;5042808;28;20199;-88
2022/11/11 07:18:03;;;;;;;322.63;28.63;;;4.00;99.90;;;;;;5038531;28;20552;-88
2022/11/11 07:20:29;;;;;;;234.30;22.70;;;3.70;99.90;;;;;;5053340;28;20200;-87
2022/11/11 07:22:54;;;;;;;238.93;22.00;;;5.30;99.90;;;;;;5042596;28;20642;-88
2022/11/11 07:25:20;;;;;;;445.77;33.87;;;3.70;99.90;;;;;;5041946;28;20439;-88
2022/11/11 07:27:46;;;;;;;244.17;23.63;;;3.80;99.90;;;;;;5049358;28;20250;-91
2022/11/11 07:30:12;;;;;;;161.10;18.50;;;4.00;99.90;;;;;;5044829;28;20463;-91
2022/11/11 07:32:47;;;;;;;115.90;20.52;;;4.20;99.90;;;;;;5043507;28;20211;-89
2022/11/11 07:35:15;;;;;;;124.28;21.10;;;4.40;99.90;;;;;;5038470;28;20177;-91
2022/11/11 07:37:41;;;;;;;65.75;19.67;;;4.60;99.90;;;;;;5038651;28;20180;-89
2022/11/11 07:40:08;;;;;;;64.00;19.73;;;4.80;99.90;;;;;;5044814;28;20214;-89
2022/11/11 07:42:41;;;;;;;55.47;14.52;;;4.80;99.90;;;;;;5038552;28;20475;-89
2022/11/11 07:45:07;;;;;;;140.05;20.25;;;4.60;99.90;;;;;;5040111;28;20220;-87
2022/11/11 07:47:35;;;;;;;74.13;15.70;;;4.60;99.90;;;;;;5045974;28;20193;-87
2022/11/11 07:50:04;;;;;;;88.38;15.73;;;4.70;99.90;;;;;;5045253;28;20273;-88
2022/11/11 07:52:30;;;;;;;164.35;19.70;;;4.50;99.90;;;;;;5032942;28;20208;-89
2022/11/11 07:55:01;;;;;;;63.63;12.80;;;4.50;99.90;;;;;;5035419;28;20571;-88
2022/11/11 07:57:26;;;;;;;19.27;11.82;;;4.60;99.90;;;;;;5037653;28;20260;-88
2022/11/11 07:59:52;;;;;;;30.00;14.43;;;4.60;99.90;;;;;;5040494;28;20855;-87
2022/11/11 08:02:19;;;;;;;28.10;14.83;;;4.70;99.90;;;;;;5053700;28;20205;-88
2022/11/11 08:04:45;;;;;;;44.42;16.25;;;4.70;99.90;;;;;;5038489;28;20188;-88
2022/11/11 08:07:10;;;;;;;34.73;16.20;;;5.00;99.90;;;;;;5040493;28;20673;-88
2022/11/11 08:09:36;;;;;;;31.30;16.40;;;5.30;99.90;;;;;;5035287;28;20213;-88
2022/11/11 08:14:46;;;;;;;29.70;16.90;;;5.80;99.90;;;;;;5057509;28;20211;-85
2022/11/11 08:17:11;;;;;;;31.83;18.73;;;6.00;99.90;;;;;;5052064;28;20205;-85
2022/11/11 08:19:37;;;;;;;25.80;15.70;;;6.10;99.90;;;;;;5051993;28;20205;-84
2022/11/11 08:22:03;;;;;;;27.00;14.90;;;6.20;99.90;;;;;;5047874;28;20184;-84
2022/11/11 08:24:28;;;;;;;17.88;12.57;;;6.50;99.90;;;;;;5054191;28;20728;-84
2022/11/11 08:26:54;;;;;;;16.40;10.90;;;6.90;99.90;;;;;;5056065;28;20184;-85
2022/11/11 08:29:20;;;;;;;23.50;11.67;;;7.30;99.90;;;;;;5057650;28;20180;-84
2022/11/11 08:31:45;;;;;;;14.37;9.63;;;8.00;99.90;;;;;;5057906;28;20189;-84
2022/11/11 08:34:11;;;;;;;15.73;10.97;;;8.90;99.90;;;;;;5055558;28;20204;-87
2022/11/11 08:36:37;;;;;;;10.80;8.60;;;9.70;99.90;;;;;;5056343;28;20234;-87
2022/11/11 08:39:02;;;;;;;10.20;8.13;;;10.30;99.90;;;;;;5055067;28;20204;-85
2022/11/11 08:41:28;;;;;;;9.57;8.30;;;10.70;99.90;;;;;;5060255;28;20560;-87
2022/11/11 08:43:55;;;;;;;10.53;7.30;;;11.00;99.90;;;;;;5060004;28;20209;-86
2022/11/11 08:46:22;;;;;;;11.00;7.53;;;11.20;99.90;;;;;;5054498;28;20228;-87
2022/11/11 08:48:47;;;;;;;7.88;7.05;;;11.30;99.90;;;;;;5057530;28;20193;-85
2022/11/11 08:51:13;;;;;;;10.90;7.60;;;11.40;99.90;;;;;;5068688;28;20195;-86
2022/11/11 08:53:40;;;;;;;10.80;6.90;;;12.20;99.90;;;;;;5057519;28;21104;-87
2022/11/11 08:56:06;;;;;;;8.68;6.90;;;12.30;99.90;;;;;;5055751;28;20296;-87
2022/11/11 08:58:31;;;;;;;11.10;7.28;;;12.80;99.90;;;;;;5055063;28;20197;-87
2022/11/11 09:00:57;;;;;;;18.87;7.87;;;12.40;99.90;;;;;;5054502;28;20227;-87
2022/11/11 09:03:22;;;;;;;10.33;6.40;;;12.50;99.90;;;;;;5053278;28;20783;-86
2022/11/11 09:05:48;;;;;;;15.20;11.67;;;13.40;99.90;;;;;;5052204;28;20246;-88
2022/11/11 09:08:13;;;;;;;16.60;12.63;;;14.80;99.90;;;;;;5054513;28;20180;-87
2022/11/11 09:10:39;;;;;;;17.53;12.40;;;16.10;99.90;;;;;;5072618;28;20273;-86
2022/11/11 09:13:05;;;;;;;11.23;8.70;;;17.10;99.90;;;;;;5060879;28;20311;-86
2022/11/11 09:15:31;;;;;;;12.00;7.80;;;16.90;99.90;;;;;;5064566;28;20181;-85
2022/11/11 09:17:56;;;;;;;10.87;7.83;;;15.90;99.90;;;;;;5050585;28;20446;-85
2022/11/11 09:20:23;;;;;;;11.33;7.47;;;15.30;99.90;;;;;;5052446;28;20471;-86
2022/11/11 09:22:49;;;;;;;14.40;8.80;;;14.70;99.90;;;;;;5059668;28;20587;-85
2022/11/11 09:25:15;;;;;;;11.80;7.83;;;14.70;99.90;;;;;;5058340;28;20512;-85
2022/11/11 09:27:42;;;;;;;11.17;7.63;;;13.40;99.90;;;;;;5060493;28;20443;-85
2022/11/11 09:30:09;;;;;;;10.10;8.27;;;13.10;99.90;;;;;;5057634;28;20496;-85
2022/11/11 09:32:35;;;;;;;11.32;8.20;;;12.00;99.90;;;;;;5051140;28;20431;-85
2022/11/11 09:35:01;;;;;;;11.05;8.60;;;12.00;99.90;;;;;;5058561;28;20189;-86
2022/11/11 09:37:26;;;;;;;7.90;7.10;;;11.70;99.90;;;;;;5056878;28;20539;-84
2022/11/11 09:39:54;;;;;;;8.50;7.40;;;11.50;99.90;;;;;;5059660;28;20216;-85
2022/11/11 09:42:29;;;;;;;11.02;7.40;;;11.50;99.90;;;;;;5056425;28;20280;-88
2022/11/11 09:45:22;;;;;;;10.40;8.32;;;11.40;99.90;;;;;;5056844;28;20197;-85
2022/11/11 09:48:25;;;;;;;10.00;7.80;;;11.50;99.90;;;;;;5070224;28;20310;-86
2022/11/11 09:50:55;;;;;;;12.13;7.95;;;11.80;99.90;;;;;;5059938;28;20187;-87
2022/11/11 09:53:37;;;;;;;12.77;7.22;;;11.50;99.90;;;;;;5064892;28;20200;-85
2022/11/11 09:56:10;;;;;;;7.25;6.55;;;11.40;99.90;;;;;;5056382;28;20177;-85
2022/11/11 09:58:44;;;;;;;12.20;8.40;;;11.50;99.90;;;;;;5058085;28;20197;-86
2022/11/11 10:01:25;;;;;;;10.52;8.57;;;11.40;99.90;;;;;;5056240;28;20184;-85
2022/11/11 10:03:58;;;;;;;12.80;8.30;;;11.20;99.90;;;;;;5055935;28;20201;-86
2022/11/11 10:06:31;;;;;;;15.48;7.75;;;10.90;99.90;;;;;;5074936;28;20221;-85
2022/11/11 10:09:01;;;;;;;10.70;7.38;;;10.60;99.90;;;;;;5057614;28;20177;-85
2022/11/11 10:12:02;;;;;;;8.43;7.43;;;10.70;99.90;;;;;;5056727;28;20244;-85
2022/11/11 10:14:48;;;;;;;12.73;8.50;;;10.70;99.90;;;;;;5050349;28;20479;-86
2022/11/11 10:17:36;;;;;;;10.95;8.00;;;10.50;99.90;;;;;;5058784;28;20661;-85
2022/11/11 10:20:14;;;;;;;11.38;8.90;;;10.40;99.90;;;;;;5060380;28;20223;-85
2022/11/11 10:22:45;;;;;;;9.75;7.85;;;10.50;99.90;;;;;;5059242;28;20212;-85
2022/11/11 10:25:15;;;;;;;11.05;8.07;;;10.50;99.90;;;;;;5064387;28;20185;-85
2022/11/11 10:27:44;;;;;;;18.77;9.70;;;10.60;99.90;;;;;;5062181;28;20178;-88
2022/11/11 10:30:21;;;;;;;10.95;8.90;;;10.90;99.90;;;;;;5057149;28;20177;-85
2022/11/11 10:33:10;;;;;;;12.32;8.60;;;11.20;99.90;;;;;;5065122;28;20290;-85
2022/11/11 10:35:39;;;;;;;9.93;7.88;;;11.20;99.90;;;;;;5059956;28;20249;-85
2022/11/11 10:38:05;;;;;;;15.57;7.35;;;11.60;99.90;;;;;;5055329;28;20241;-85
2022/11/11 10:40:40;;;;;;;11.07;8.40;;;11.70;99.90;;;;;;5071980;28;20343;-85
2022/11/11 10:43:22;;;;;;;9.40;7.50;;;11.50;99.90;;;;;;5056615;28;20264;-86
2022/11/11 10:46:02;;;;;;;13.00;7.55;;;11.70;99.90;;;;;;5061625;28;20196;-86
2022/11/11 10:49:07;;;;;;;11.90;8.10;;;11.60;99.90;;;;;;5054893;28;20215;-85
2022/11/11 10:51:56;;;;;;;14.52;8.45;;;11.50;99.90;;;;;;5051831;28;20641;-85
2022/11/11 10:54:36;;;;;;;8.68;7.88;;;11.50;99.90;;;;;;5056343;28;20200;-85
2022/11/11 10:57:12;;;;;;;11.70;8.20;;;11.40;99.90;;;;;;5044043;28;20183;-86
2022/11/11 10:59:48;;;;;;;14.43;9.40;;;11.30;99.90;;;;;;5054052;28;20193;-85
2022/11/11 11:02:22;;;;;;;11.10;9.15;;;11.30;99.90;;;;;;5054833;28;20320;-85
2022/11/11 11:05:00;;;;;;;12.80;8.60;;;11.00;99.90;;;;;;5069215;28;20225;-85
2022/11/11 11:07:32;;;;;;;10.45;8.60;;;11.20;99.90;;;;;;5047694;28;20185;-85
2022/11/11 11:10:07;;;;;;;15.40;8.43;;;11.00;99.90;;;;;;5056951;28;21028;-85
2022/11/11 11:12:41;;;;;;;11.40;8.30;;;11.00;99.90;;;;;;5054508;28;20218;-86
2022/11/11 11:15:16;;;;;;;10.77;8.00;;;11.10;99.90;;;;;;5056035;28;20177;-85
2022/11/11 11:18:00;;;;;;;9.68;8.15;;;11.40;99.90;;;;;;5053735;28;20195;-85
2022/11/11 11:20:26;;;;;;;17.88;8.40;;;11.40;99.90;;;;;;5057452;28;20208;-86
2022/11/11 11:23:01;;;;;;;12.47;8.50;;;11.50;99.90;;;;;;5056152;28;20214;-85
2022/11/11 11:25:29;;;;;;;13.90;8.30;;;11.40;99.90;;;;;;5073470;28;20176;-86
2022/11/11 11:28:12;;;;;;;12.32;8.70;;;11.50;99.90;;;;;;5059292;28;20188;-86
2022/11/11 11:30:38;;;;;;;13.38;8.15;;;11.60;99.90;;;;;;5059121;28;20296;-86
2022/11/11 11:33:08;;;;;;;10.93;8.70;;;11.60;99.90;;;;;;5052539;28;20228;-86
2022/11/11 11:35:35;;;;;;;11.50;7.78;;;11.80;99.90;;;;;;5056834;28;20451;-85
2022/11/11 11:38:02;;;;;;;13.20;8.45;;;11.80;99.90;;;;;;5068702;28;20202;-86
2022/11/11 11:40:56;;;;;;;16.00;8.93;;;11.90;99.90;;;;;;5059934;28;20655;-85
2022/11/11 11:43:36;;;;;;;13.48;8.73;;;12.10;99.90;;;;;;5057424;28;20200;-85
2022/11/11 11:46:24;;;;;;;12.60;9.05;;;12.10;99.90;;;;;;5061169;28;20193;-85
2022/11/11 11:48:50;;;;;;;9.30;8.30;;;;;;;;;;5047123;28;20655;-85
2022/11/11 11:51:34;;;;;;;15.47;9.40;;;12.70;99.90;;;;;;5056545;28;20208;-86
2022/11/11 11:53:59;;;;;;;12.63;8.80;;;;;;;;;;5049038;28;21168;-85
2022/11/11 11:56:48;;;;;;;9.70;8.00;;;13.50;99.90;;;;;;5059168;28;20454;-85
2022/11/11 11:59:21;;;;;;;10.00;9.00;;;13.50;99.90;;;;;;5077638;28;20469;-85
2022/11/11 12:02:20;;;;;;;11.05;9.48;;;13.50;99.90;;;;;;5056494;28;20526;-85
2022/11/11 12:05:04;;;;;;;16.70;10.20;;;13.40;99.90;;;;;;5057239;28;20217;-85
2022/11/11 12:07:51;;;;;;;12.93;8.90;;;13.20;99.90;;;;;;5061596;28;20748;-85
2022/11/11 12:10:38;;;;;;;11.73;8.53;;;13.30;99.90;;;;;;5060692;28;20445;-85
2022/11/11 12:13:17;;;;;;;14.07;9.23;;;13.00;99.90;;;;;;5061230;28;20470;-85
2022/11/11 12:15:57;;;;;;;19.65;9.23;;;13.00;99.90;;;;;;5059884;28;20427;-86
2022/11/11 12:18:54;;;;;;;11.53;8.30;;;13.20;99.90;;;;;;5055827;28;20180;-86
2022/11/11 12:21:25;;;;;;;14.07;8.30;;;13.30;99.90;;;;;;5058766;28;20453;-86
2022/11/11 12:23:58;;;;;;;10.18;8.10;;;13.10;99.90;;;;;;5055891;28;20263;-87
2022/11/11 12:26:33;;;;;;;11.95;7.75;;;13.10;99.90;;;;;;5053610;28;20173;-87
2022/11/11 12:29:33;;;;;;;13.50;7.80;;;13.10;99.90;;;;;;5057082;28;20189;-87
2022/11/11 12:31:59;;;;;;;11.03;7.60;;;;;;;;;;5053021;28;20446;-85
2022/11/11 12:34:47;;;;;;;11.90;7.30;;;13.50;99.90;;;;;;5063441;28;20463;-85
2022/11/11 12:37:28;;;;;;;10.75;7.80;;;13.70;99.90;;;;;;5059413;28;20456;-86
2022/11/11 12:40:23;;;;;;;11.23;7.70;;;13.70;99.90;;;;;;5074979;28;20192;-85
2022/11/11 12:42:52;;;;;;;14.13;7.53;;;13.50;99.90;;;;;;5063435;28;20462;-85
2022/11/11 12:45:58;;;;;;;11.27;8.00;;;13.50;99.90;;;;;;5045468;28;20416;-85
2022/11/11 12:48:43;;;;;;;14.77;8.03;;;13.50;99.90;;;;;;4989107;28;20440;-85
2022/11/11 12:51:36;;;;;;;8.83;6.77;;;13.30;99.90;;;;;;5060094;28;20776;-85
2022/11/11 12:54:20;;;;;;;12.90;7.87;;;13.20;99.90;;;;;;5063595;28;20459;-85
2022/11/11 12:57:12;;;;;;;16.30;7.80;;;13.30;99.90;;;;;;5062179;28;20431;-85
2022/11/11 13:00:03;;;;;;;9.37;7.57;;;13.60;99.90;;;;;;5043128;28;20761;-85
2022/11/11 13:03:00;;;;;;;10.73;8.20;;;13.60;99.90;;;;;;5057166;28;20503;-85
2022/11/11 13:06:20;;;;;;;12.57;7.70;;;13.30;99.90;;;;;;5073497;28;20485;-84
2022/11/11 13:09:28;;;;;;;10.30;7.90;;;13.00;99.90;;;;;;5005070;28;20452;-85
2022/11/11 13:12:05;;;;;;;10.80;8.25;;;12.80;99.90;;;;;;5000806;28;20461;-85
2022/11/11 13:15:00;;;;;;;10.10;8.15;;;12.80;99.90;;;;;;5054478;28;20554;-87
2022/11/11 13:17:26;;;;;;;14.57;8.47;;;12.80;99.90;;;;;;5058830;28;20197;-86
2022/11/11 13:19:58;;;;;;;13.53;7.83;;;12.70;99.90;;;;;;5054111;28;20459;-87
2022/11/11 13:22:28;;;;;;;9.73;8.07;;;12.60;99.90;;;;;;5053348;28;20201;-86
2022/11/11 13:24:56;;;;;;;10.10;7.60;;;12.60;99.90;;;;;;5060269;28;20490;-84
2022/11/11 13:27:40;;;;;;;17.20;8.25;;;12.80;99.90;;;;;;5057591;28;20503;-85
2022/11/11 13:30:31;;;;;;;11.50;7.60;;;12.90;99.90;;;;;;5057731;28;20181;-86
2022/11/11 13:33:04;;;;;;;13.17;7.67;;;13.10;99.90;;;;;;5054263;28;20224;-85
2022/11/11 13:35:43;;;;;;;14.20;8.10;;;13.20;99.90;;;;;;5055336;28;20451;-85
2022/11/11 13:38:27;;;;;;;10.00;7.50;;;13.20;99.90;;;;;;5052763;28;20531;-85
2022/11/11 13:40:55;;;;;;;9.43;7.83;;;13.10;99.90;;;;;;5045188;28;20456;-84
2022/11/11 13:43:29;;;;;;;10.43;6.90;;;13.00;99.90;;;;;;5060467;28;20464;-87
2022/11/11 13:45:59;;;;;;;12.13;7.57;;;13.00;99.90;;;;;;5058781;28;20809;-84
2022/11/11 13:48:24;;;;;;;14.83;8.10;;;12.80;99.90;;;;;;5058694;28;20412;-85
2022/11/11 13:50:50;;;;;;;18.53;8.47;;;12.70;99.90;;;;;;5053587;28;20411;-85
2022/11/11 13:53:34;;;;;;;9.77;7.53;;;12.50;99.90;;;;;;5057449;28;20200;-85
2022/11/11 13:56:02;;;;;;;12.43;7.73;;;12.50;99.90;;;;;;5058800;28;20172;-85
2022/11/11 13:58:40;;;;;;;18.60;8.13;;;12.50;99.90;;;;;;5073714;28;20436;-86
2022/11/11 14:01:08;;;;;;;13.40;8.70;;;12.50;99.90;;;;;;5059019;28;20530;-86
2022/11/11 14:03:55;;;;;;;12.50;8.27;;;12.40;99.90;;;;;;5076261;28;20476;-86
2022/11/11 14:06:27;;;;;;;9.10;7.07;;;12.40;99.90;;;;;;5053507;28;20423;-85
2022/11/11 14:08:54;;;;;;;12.88;8.57;;;12.30;99.90;;;;;;5052323;28;20512;-84
2022/11/11 14:11:25;;;;;;;13.98;7.82;;;12.30;99.90;;;;;;5054209;28;20185;-83
2022/11/11 14:13:55;;;;;;;10.47;7.97;;;12.20;99.90;;;;;;5072694;28;20216;-85